createdAt,value
2022-07-29T00:01:01.959Z,100.00
2022-07-29T00:03:29.856Z,100.00
2022-07-29T00:06:02.221Z,100.00
2022-07-29T00:08:30.033Z,100.00
2022-07-29T00:10:59.283Z,100.00
2022-07-29T00:13:32.456Z,100.00
2022-07-29T00:16:04.795Z,100.00
2022-07-29T00:18:37.146Z,100.00
2022-07-29T00:21:05.333Z,100.00
2022-07-29T00:23:36.734Z,100.00
2022-07-29T00:26:10.070Z,100.00
2022-07-29T00:28:39.969Z,100.00
2022-07-29T00:31:09.049Z,100.00
2022-07-29T00:33:38.813Z,100.00
2022-07-29T00:36:07.972Z,100.00
2022-07-29T00:38:35.901Z,100.00
2022-07-29T00:41:05.695Z,100.00
2022-07-29T00:43:35.128Z,100.00
2022-07-29T00:46:03.104Z,100.00
2022-07-29T00:48:33.077Z,100.00
2022-07-29T00:51:05.178Z,100.00
2022-07-29T00:53:33.955Z,100.00
2022-07-29T00:56:02.492Z,100.00
2022-07-29T00:58:37.018Z,100.00
2022-07-29T01:01:04.957Z,100.00
2022-07-29T01:03:32.851Z,100.00
2022-07-29T01:06:04.967Z,100.00
2022-07-29T01:08:34.810Z,100.00
2022-07-29T01:11:05.616Z,100.00
2022-07-29T01:13:37.415Z,100.00
2022-07-29T01:16:15.038Z,100.00
2022-07-29T01:18:50.407Z,100.00
2022-07-29T01:21:29.835Z,100.00
2022-07-29T01:24:34.127Z,100.00
2022-07-29T01:27:19.230Z,100.00
2022-07-29T01:29:56.214Z,100.00
2022-07-29T01:32:31.101Z,100.00
2022-07-29T01:35:07.868Z,100.00
2022-07-29T01:37:45.223Z,100.00
2022-07-29T01:40:22.839Z,100.00
2022-07-29T01:42:56.811Z,100.00
2022-07-29T01:45:33.595Z,100.00
2022-07-29T01:48:07.345Z,100.00
2022-07-29T01:50:39.905Z,100.00
2022-07-29T01:53:12.724Z,100.00
2022-07-29T01:55:46.724Z,100.00
2022-07-29T01:58:19.920Z,100.00
2022-07-29T02:00:51.155Z,100.00
2022-07-29T02:03:22.111Z,100.00
2022-07-29T02:05:50.492Z,100.00
2022-07-29T02:08:22.739Z,100.00
2022-07-29T02:10:54.975Z,100.00
2022-07-29T02:13:26.876Z,100.00
2022-07-29T02:15:59.431Z,100.00
2022-07-29T02:18:32.545Z,100.00
2022-07-29T02:21:02.887Z,100.00
2022-07-29T02:23:50.966Z,100.00
2022-07-29T02:26:19.975Z,100.00
2022-07-29T02:28:53.995Z,100.00
2022-07-29T02:31:27.163Z,100.00
2022-07-29T02:34:00.943Z,100.00
2022-07-29T02:36:30.770Z,100.00
2022-07-29T02:39:01.764Z,100.00
2022-07-29T02:41:33.918Z,100.00
2022-07-29T02:44:08.484Z,100.00
2022-07-29T02:46:39.828Z,100.00
2022-07-29T02:49:15.418Z,100.00
2022-07-29T02:51:49.156Z,100.00
2022-07-29T02:54:33.087Z,100.00
2022-07-29T02:57:07.629Z,100.00
2022-07-29T02:59:39.627Z,100.00
2022-07-29T03:02:13.628Z,100.00
2022-07-29T03:04:46.173Z,100.00
2022-07-29T03:07:19.902Z,100.00
2022-07-29T03:09:51.674Z,100.00
2022-07-29T03:12:23.017Z,100.00
2022-07-29T03:14:54.403Z,100.00
2022-07-29T03:17:26.040Z,100.00
2022-07-29T03:19:57.157Z,100.00
2022-07-29T03:22:25.887Z,100.00
2022-07-29T03:24:55.647Z,100.00
2022-07-29T03:27:25.664Z,100.00
2022-07-29T03:29:53.485Z,100.00
2022-07-29T03:32:25.125Z,100.00
2022-07-29T03:34:56.574Z,100.00
2022-07-29T03:37:26.240Z,100.00
2022-07-29T03:39:57.189Z,100.00
2022-07-29T03:42:34.201Z,100.00
2022-07-29T03:45:05.583Z,100.00
2022-07-29T03:47:50.200Z,100.00
2022-07-29T03:50:23.969Z,100.00
2022-07-29T03:52:54.108Z,100.00
2022-07-29T03:55:22.310Z,100.00
2022-07-29T03:57:52.605Z,100.00
2022-07-29T04:00:22.533Z,100.00
2022-07-29T04:02:50.396Z,100.00
2022-07-29T04:05:26.307Z,100.00
2022-07-29T04:07:54.169Z,100.00
2022-07-29T04:10:32.066Z,100.00
2022-07-29T04:13:06.076Z,100.00
2022-07-29T04:15:33.932Z,100.00
2022-07-29T04:18:01.812Z,100.00
2022-07-29T04:20:35.139Z,100.00
2022-07-29T04:23:02.984Z,100.00
2022-07-29T04:25:30.871Z,100.00
2022-07-29T04:28:05.828Z,100.00
2022-07-29T04:30:34.881Z,100.00
2022-07-29T04:33:07.010Z,100.00
2022-07-29T04:35:49.965Z,100.00
2022-07-29T04:38:20.246Z,100.00
2022-07-29T04:40:52.110Z,100.00
2022-07-29T04:43:23.229Z,100.00
2022-07-29T04:45:55.397Z,100.00
2022-07-29T04:48:28.242Z,100.00
2022-07-29T04:51:01.828Z,100.00
2022-07-29T04:53:29.461Z,100.00
2022-07-29T04:55:57.240Z,100.00
2022-07-29T04:58:29.274Z,100.00
2022-07-29T05:00:57.024Z,100.00
2022-07-29T05:03:24.636Z,100.00
2022-07-29T05:05:56.214Z,100.00
2022-07-29T05:08:25.553Z,100.00
2022-07-29T05:10:53.160Z,100.00
2022-07-29T05:13:25.067Z,100.00
2022-07-29T05:15:52.995Z,100.00
2022-07-29T05:18:20.622Z,100.00
2022-07-29T05:20:57.768Z,100.00
2022-07-29T05:23:26.780Z,100.00
2022-07-29T05:25:54.340Z,100.00
2022-07-29T05:28:26.025Z,98.34
2022-07-29T05:30:53.681Z,82.03
2022-07-29T05:33:36.105Z,81.21
2022-07-29T05:36:09.756Z,72.79
2022-07-29T05:38:38.740Z,72.73
2022-07-29T05:41:06.629Z,70.14
2022-07-29T05:43:38.336Z,71.83
2022-07-29T05:46:05.987Z,74.89
2022-07-29T05:48:33.659Z,80.62
2022-07-29T05:51:05.427Z,82.62
2022-07-29T05:53:33.104Z,82.02
2022-07-29T05:56:05.082Z,82.82
2022-07-29T05:58:36.887Z,85.64
2022-07-29T06:01:04.548Z,83.75
2022-07-29T06:03:32.329Z,84.75
2022-07-29T06:06:02.479Z,82.97
2022-07-29T06:08:30.096Z,81.87
2022-07-29T06:10:57.715Z,80.95
2022-07-29T06:13:27.377Z,80.26
2022-07-29T06:15:57.278Z,78.22
2022-07-29T06:18:24.970Z,75.00
2022-07-29T06:20:57.287Z,71.77
2022-07-29T06:23:24.991Z,68.68
2022-07-29T06:25:52.658Z,70.35
2022-07-29T06:28:24.564Z,70.33
2022-07-29T06:30:53.557Z,70.43
2022-07-29T06:33:21.340Z,66.99
2022-07-29T06:35:55.112Z,64.70
2022-07-29T06:38:30.950Z,63.91
2022-07-29T06:41:05.370Z,61.97
2022-07-29T06:43:35.054Z,60.49
2022-07-29T06:46:09.261Z,58.83
2022-07-29T06:48:38.077Z,60.09
2022-07-29T06:51:08.028Z,59.16
2022-07-29T06:53:38.334Z,57.89
2022-07-29T06:56:06.825Z,56.04
2022-07-29T06:58:36.473Z,54.54
2022-07-29T07:03:50.501Z,55.08
2022-07-29T07:06:20.291Z,53.63
2022-07-29T07:08:49.013Z,51.37
2022-07-29T07:11:16.736Z,52.96
2022-07-29T07:13:44.509Z,51.13
2022-07-29T07:16:13.545Z,50.05
2022-07-29T07:18:41.803Z,48.99
2022-07-29T07:21:09.574Z,49.64
2022-07-29T07:23:39.490Z,49.68
2022-07-29T07:26:07.381Z,50.69
2022-07-29T07:28:36.171Z,51.85
2022-07-29T07:31:05.954Z,51.53
2022-07-29T07:33:36.920Z,49.40
2022-07-29T07:36:04.696Z,47.61
2022-07-29T07:38:34.425Z,45.16
2022-07-29T07:41:04.163Z,47.50
2022-07-29T07:43:31.892Z,46.35
2022-07-29T07:46:01.677Z,47.11
2022-07-29T07:48:35.877Z,47.45
2022-07-29T07:51:06.979Z,44.92
2022-07-29T07:53:34.840Z,47.20
2022-07-29T07:56:11.086Z,45.39
2022-07-29T07:58:39.883Z,47.55
2022-07-29T08:01:07.927Z,46.15
2022-07-29T08:05:56.357Z,47.19
2022-07-29T08:10:02.618Z,46.64
2022-07-29T08:12:30.899Z,48.27
2022-07-29T08:14:58.784Z,47.79
2022-07-29T08:17:29.333Z,46.56
2022-07-29T08:19:57.237Z,48.00
2022-07-29T08:22:24.999Z,46.28
2022-07-29T08:24:56.309Z,47.95
2022-07-29T08:27:44.591Z,47.49
2022-07-29T08:30:13.174Z,44.72
2022-07-29T08:32:53.903Z,47.53
2022-07-29T08:35:24.011Z,46.30
2022-07-29T08:37:52.735Z,44.64
2022-07-29T08:40:21.536Z,44.51
2022-07-29T08:43:07.906Z,44.59
2022-07-29T08:45:47.318Z,45.04
2022-07-29T08:48:23.038Z,44.48
2022-07-29T08:50:57.616Z,43.38
2022-07-29T08:53:31.552Z,42.74
2022-07-29T08:56:00.506Z,42.72
2022-07-29T08:58:38.471Z,44.30
2022-07-29T09:01:07.499Z,43.17
2022-07-29T09:03:40.105Z,44.04
2022-07-29T09:06:08.398Z,42.37
2022-07-29T09:08:37.227Z,43.30
2022-07-29T09:11:07.485Z,43.57
2022-07-29T09:13:36.998Z,42.17
2022-07-29T09:16:09.317Z,43.53
2022-07-29T09:18:43.202Z,43.46
2022-07-29T09:21:30.106Z,43.50
2022-07-29T09:24:10.794Z,42.16
2022-07-29T09:26:41.518Z,42.20
2022-07-29T09:29:19.348Z,42.03
2022-07-29T09:31:48.948Z,43.43
2022-07-29T09:34:24.638Z,45.12
2022-07-29T09:36:54.585Z,43.03
2022-07-29T09:39:35.481Z,41.95
2022-07-29T09:42:06.062Z,40.39
2022-07-29T09:44:49.296Z,40.42
2022-07-29T09:47:19.426Z,38.31
2022-07-29T09:50:01.115Z,40.17
2022-07-29T09:52:30.830Z,41.44
2022-07-29T09:55:09.896Z,40.22
2022-07-29T09:57:41.932Z,39.41
2022-07-29T10:00:18.034Z,41.52
2022-07-29T10:02:47.928Z,40.21
2022-07-29T10:05:23.384Z,38.84
2022-07-29T10:07:54.206Z,40.31
2022-07-29T10:10:29.333Z,40.32
2022-07-29T10:13:03.104Z,41.39
2022-07-29T10:15:42.094Z,42.27
2022-07-29T10:18:10.735Z,40.71
2022-07-29T10:20:42.145Z,43.72
2022-07-29T10:23:13.119Z,41.75
2022-07-29T10:25:46.189Z,42.04
2022-07-29T10:28:16.754Z,42.89
2022-07-29T10:30:51.723Z,42.46
2022-07-29T10:33:43.709Z,39.75
2022-07-29T10:36:26.314Z,40.71
2022-07-29T10:39:03.951Z,42.72
2022-07-29T10:41:49.129Z,40.77
2022-07-29T10:44:22.826Z,42.88
2022-07-29T10:46:54.577Z,41.63
2022-07-29T10:49:25.445Z,40.75
2022-07-29T10:51:58.569Z,43.82
2022-07-29T10:54:46.195Z,41.48
2022-07-29T10:57:52.298Z,39.51
2022-07-29T11:00:34.232Z,40.77
2022-07-29T11:03:10.882Z,40.53
2022-07-29T11:05:59.575Z,41.08
2022-07-29T11:08:28.948Z,39.11
2022-07-29T11:11:51.418Z,38.95
2022-07-29T11:14:58.242Z,35.88
2022-07-29T11:17:26.459Z,35.87
2022-07-29T11:20:33.685Z,37.05
2022-07-29T11:23:04.171Z,36.58
2022-07-29T11:25:42.366Z,37.73
2022-07-29T11:28:25.157Z,38.31
2022-07-29T11:30:55.148Z,40.21
2022-07-29T11:33:54.169Z,38.41
2022-07-29T11:39:36.943Z,37.15
2022-07-29T11:42:42.000Z,37.74
2022-07-29T11:45:42.535Z,38.50
2022-07-29T11:48:29.012Z,37.22
2022-07-29T11:50:51.995Z,35.50
2022-07-29T11:53:21.739Z,36.30
2022-07-29T11:55:59.421Z,37.46
2022-07-29T11:58:30.573Z,38.23
2022-07-29T12:01:04.223Z,39.77
2022-07-29T12:03:35.988Z,38.70
2022-07-29T12:06:07.470Z,38.49
2022-07-29T12:08:43.704Z,38.21
2022-07-29T12:11:20.577Z,37.37
2022-07-29T12:13:52.818Z,36.53
2022-07-29T12:16:26.134Z,33.66
2022-07-29T12:19:02.287Z,33.44
2022-07-29T12:21:31.373Z,33.89
2022-07-29T12:24:05.846Z,35.24
2022-07-29T12:26:37.945Z,34.97
2022-07-29T12:29:14.790Z,35.45
2022-07-29T12:31:48.852Z,34.01
2022-07-29T12:34:18.209Z,33.30
2022-07-29T12:36:46.527Z,34.16
2022-07-29T12:39:22.385Z,35.57
2022-07-29T12:41:50.301Z,34.20
2022-07-29T12:44:18.249Z,33.18
2022-07-29T12:46:49.473Z,35.09
2022-07-29T12:49:23.844Z,35.00
2022-07-29T12:51:56.930Z,34.86
2022-07-29T12:54:26.559Z,34.97
2022-07-29T12:57:03.569Z,34.37
2022-07-29T12:59:31.827Z,35.66
2022-07-29T13:02:01.033Z,34.39
2022-07-29T13:04:33.421Z,34.82
2022-07-29T13:07:05.150Z,35.22
2022-07-29T13:09:44.338Z,34.44
2022-07-29T13:12:13.975Z,33.62
2022-07-29T13:14:43.677Z,33.94
2022-07-29T13:17:13.509Z,33.43
2022-07-29T13:19:43.190Z,32.51
2022-07-29T13:22:12.508Z,33.85
2022-07-29T13:24:57.888Z,34.16
2022-07-29T13:27:27.805Z,34.95
2022-07-29T13:30:01.379Z,35.89
2022-07-29T13:32:30.857Z,36.64
2022-07-29T13:35:05.664Z,37.33
2022-07-29T13:37:36.877Z,35.23
2022-07-29T13:40:11.746Z,36.68
2022-07-29T13:42:40.098Z,37.46
2022-07-29T13:45:11.724Z,35.90
2022-07-29T13:47:47.452Z,36.11
2022-07-29T13:50:19.803Z,36.28
2022-07-29T13:52:51.497Z,34.03
2022-07-29T13:55:23.014Z,34.10
2022-07-29T13:57:51.051Z,34.33
2022-07-29T14:00:23.144Z,34.80
2022-07-29T14:02:51.069Z,33.90
2022-07-29T14:05:18.984Z,33.17
2022-07-29T14:07:51.262Z,34.18
2022-07-29T14:10:20.666Z,35.13
2022-07-29T14:12:48.613Z,35.14
2022-07-29T14:15:20.825Z,35.90
2022-07-29T14:17:48.840Z,36.73
2022-07-29T14:20:17.646Z,36.80
2022-07-29T14:22:50.135Z,38.08
2022-07-29T14:25:18.245Z,39.89
2022-07-29T14:27:56.223Z,36.73
2022-07-29T14:30:28.720Z,36.35
2022-07-29T14:32:56.561Z,35.79
2022-07-29T14:35:26.613Z,35.27
2022-07-29T14:37:56.721Z,35.01
2022-07-29T14:40:24.851Z,36.13
2022-07-29T14:42:56.186Z,37.31
2022-07-29T14:45:24.834Z,35.84
2022-07-29T14:47:53.386Z,33.66
2022-07-29T14:50:31.738Z,35.36
2022-07-29T14:53:00.206Z,35.42
2022-07-29T14:55:32.830Z,34.73
2022-07-29T14:58:09.914Z,36.02
2022-07-29T15:00:44.225Z,36.32
2022-07-29T15:03:12.169Z,37.55
2022-07-29T15:05:40.469Z,36.51
2022-07-29T15:08:13.394Z,36.14
2022-07-29T15:10:41.303Z,35.07
2022-07-29T15:13:10.684Z,35.55
2022-07-29T15:15:45.381Z,33.91
2022-07-29T15:18:13.527Z,33.80
2022-07-29T15:20:41.623Z,33.07
2022-07-29T15:23:15.460Z,33.74
2022-07-29T15:25:44.408Z,33.73
2022-07-29T15:28:15.830Z,34.60
2022-07-29T15:30:45.966Z,33.49
2022-07-29T15:33:14.020Z,33.87
2022-07-29T15:35:41.996Z,35.99
2022-07-29T15:38:14.092Z,35.55
2022-07-29T15:40:43.936Z,36.43
2022-07-29T15:43:17.916Z,34.40
2022-07-29T15:46:01.916Z,34.57
2022-07-29T15:48:32.378Z,35.46
2022-07-29T15:54:07.330Z,34.75
2022-07-29T15:56:37.750Z,34.32
2022-07-29T15:59:07.138Z,34.71
2022-07-29T16:01:42.453Z,36.40
2022-07-29T16:04:10.518Z,38.14
2022-07-29T16:06:42.600Z,40.39
2022-07-29T16:09:10.935Z,42.16
2022-07-29T16:11:38.912Z,41.71
2022-07-29T16:14:14.269Z,41.02
2022-07-29T16:16:43.649Z,40.26
2022-07-29T16:19:11.687Z,40.53
2022-07-29T16:21:42.456Z,40.42
2022-07-29T16:24:12.950Z,41.05
2022-07-29T16:26:41.028Z,42.66
2022-07-29T16:29:12.613Z,44.09
2022-07-29T16:31:45.020Z,43.76
2022-07-29T16:34:13.123Z,44.61
2022-07-29T16:36:47.754Z,44.53
2022-07-29T16:39:18.119Z,44.62
2022-07-29T16:41:48.080Z,45.00
2022-07-29T16:44:17.918Z,45.04
2022-07-29T16:46:49.384Z,45.37
2022-07-29T16:49:19.414Z,46.33
2022-07-29T16:51:47.897Z,47.01
2022-07-29T16:54:18.123Z,48.71
2022-07-29T16:56:48.147Z,50.31
2022-07-29T16:59:18.059Z,51.90
2022-07-29T17:01:48.658Z,52.47
2022-07-29T17:04:17.129Z,52.45
2022-07-29T17:06:45.446Z,51.82
2022-07-29T17:09:16.083Z,51.88
2022-07-29T17:11:52.967Z,52.08
2022-07-29T17:14:29.383Z,53.05
2022-07-29T17:17:02.032Z,54.58
2022-07-29T17:19:32.349Z,54.99
2022-07-29T17:22:18.642Z,56.21
2022-07-29T17:24:47.260Z,56.73
2022-07-29T17:27:18.007Z,57.56
2022-07-29T17:29:47.898Z,56.93
2022-07-29T17:32:16.023Z,57.64
2022-07-29T17:34:49.034Z,56.60
2022-07-29T17:37:18.936Z,55.01
2022-07-29T17:39:56.203Z,52.97
2022-07-29T17:42:26.736Z,51.00
2022-07-29T17:45:00.964Z,46.46
2022-07-29T17:47:33.734Z,45.03
2022-07-29T17:50:05.646Z,44.46
2022-07-29T17:52:37.817Z,45.45
2022-07-29T17:55:10.611Z,45.51
2022-07-29T17:57:40.873Z,45.00
2022-07-29T18:00:11.369Z,43.85
2022-07-29T18:02:50.332Z,45.11
2022-07-29T18:05:20.841Z,45.58
2022-07-29T18:07:58.403Z,45.72
2022-07-29T18:10:36.599Z,45.75
2022-07-29T18:13:05.363Z,46.30
2022-07-29T18:15:46.688Z,45.86
2022-07-29T18:18:22.688Z,47.03
2022-07-29T18:20:56.490Z,48.01
2022-07-29T18:23:36.067Z,48.45
2022-07-29T18:26:07.412Z,48.48
2022-07-29T18:28:40.472Z,49.92
2022-07-29T18:31:14.797Z,49.31
2022-07-29T18:33:46.300Z,49.82
2022-07-29T18:36:18.674Z,50.04
2022-07-29T18:38:51.738Z,50.42
2022-07-29T18:41:25.517Z,51.60
2022-07-29T18:43:57.252Z,51.02
2022-07-29T18:46:29.289Z,51.22
2022-07-29T18:49:02.757Z,52.42
2022-07-29T18:51:37.613Z,52.07
2022-07-29T18:54:14.023Z,51.96
2022-07-29T18:56:45.455Z,53.00
2022-07-29T18:59:20.418Z,53.58
2022-07-29T19:01:55.401Z,54.74
2022-07-29T19:04:31.512Z,56.62
2022-07-29T19:07:03.434Z,55.73
2022-07-29T19:09:34.171Z,57.00
2022-07-29T19:12:07.457Z,57.95
2022-07-29T19:14:38.912Z,59.87
2022-07-29T19:17:09.410Z,60.96
2022-07-29T19:19:41.136Z,59.66
2022-07-29T19:22:09.519Z,59.43
2022-07-29T19:24:38.671Z,59.80
2022-07-29T19:27:08.023Z,61.87
2022-07-29T19:29:41.307Z,63.70
2022-07-29T19:32:25.031Z,63.36
2022-07-29T19:35:09.327Z,62.69
2022-07-29T19:37:41.435Z,63.80
2022-07-29T19:40:12.695Z,64.95
2022-07-29T19:42:44.643Z,65.98
2022-07-29T19:45:14.130Z,67.35
2022-07-29T19:47:47.281Z,67.75
2022-07-29T19:50:20.684Z,68.38
2022-07-29T19:53:07.896Z,68.01
2022-07-29T19:55:41.425Z,69.38
2022-07-29T19:58:15.353Z,69.25
2022-07-29T20:00:45.203Z,71.43
2022-07-29T20:03:16.469Z,72.25
2022-07-29T20:05:49.281Z,73.31
2022-07-29T20:08:17.184Z,73.68
2022-07-29T20:10:45.301Z,72.28
2022-07-29T20:13:17.696Z,73.02
2022-07-29T20:15:47.522Z,72.72
2022-07-29T20:18:22.364Z,70.23
2022-07-29T20:21:05.411Z,71.55
2022-07-29T20:23:35.119Z,73.31
2022-07-29T20:26:06.099Z,73.40
2022-07-29T20:28:45.265Z,74.08
2022-07-29T20:31:27.237Z,74.39
2022-07-29T20:33:59.547Z,74.39
2022-07-29T20:36:29.675Z,74.42
2022-07-29T20:39:01.398Z,75.36
2022-07-29T20:41:39.347Z,76.13
2022-07-29T20:44:18.365Z,75.35
2022-07-29T20:46:48.830Z,75.73
2022-07-29T20:49:18.570Z,77.13
2022-07-29T20:51:49.053Z,76.61
2022-07-29T20:54:19.133Z,77.11
2022-07-29T20:56:53.359Z,77.35
2022-07-29T20:59:23.744Z,78.33
2022-07-29T21:01:57.140Z,79.06
2022-07-29T21:04:32.754Z,79.60
2022-07-29T21:07:01.582Z,79.69
2022-07-29T21:09:33.832Z,79.28
2022-07-29T21:12:04.739Z,81.89
2022-07-29T21:14:51.928Z,83.24
2022-07-29T21:17:22.644Z,81.18
2022-07-29T21:19:53.629Z,80.82
2022-07-29T21:22:22.465Z,79.65
2022-07-29T21:24:50.879Z,79.23
2022-07-29T21:27:38.629Z,79.35
2022-07-29T21:30:08.316Z,79.98
2022-07-29T21:32:36.856Z,80.30
2022-07-29T21:35:18.149Z,80.47
2022-07-29T21:37:54.379Z,80.97
2022-07-29T21:40:22.599Z,82.78
2022-07-29T21:42:50.597Z,82.67
2022-07-29T21:45:20.941Z,81.65
2022-07-29T21:47:49.969Z,84.50
2022-07-29T21:50:21.503Z,84.94
2022-07-29T21:52:55.710Z,84.39
2022-07-29T21:55:26.245Z,85.58
2022-07-29T21:58:00.073Z,85.09
2022-07-29T22:00:28.946Z,84.50
2022-07-29T22:02:57.186Z,83.76
2022-07-29T22:05:31.061Z,85.12
2022-07-29T22:08:01.349Z,84.30
2022-07-29T22:10:30.758Z,84.05
2022-07-29T22:13:02.631Z,84.18
2022-07-29T22:15:31.681Z,86.27
2022-07-29T22:18:00.308Z,86.71
2022-07-29T22:20:31.613Z,86.72
2022-07-29T22:23:03.805Z,87.08
2022-07-29T22:25:31.828Z,87.95
2022-07-29T22:28:01.503Z,88.94
2022-07-29T22:30:31.588Z,88.51
2022-07-29T22:32:59.594Z,86.95
2022-07-29T22:35:31.314Z,87.95
2022-07-29T22:37:59.559Z,88.82
2022-07-29T22:40:28.125Z,88.36
2022-07-29T22:43:00.653Z,87.11
2022-07-29T22:45:29.955Z,84.70
2022-07-29T22:47:59.521Z,87.17
2022-07-29T22:50:31.379Z,83.88
2022-07-29T22:53:01.465Z,87.06
2022-07-29T22:55:29.787Z,88.45
2022-07-29T22:57:58.004Z,90.52
2022-07-29T23:00:26.210Z,91.04
2022-07-29T23:02:54.064Z,91.05
2022-07-29T23:05:22.211Z,90.37
2022-07-29T23:07:53.565Z,90.16
2022-07-29T23:10:23.813Z,91.20
2022-07-29T23:12:51.679Z,91.91
2022-07-29T23:15:19.901Z,93.85
2022-07-29T23:17:52.695Z,93.70
2022-07-29T23:20:21.502Z,93.50
2022-07-29T23:22:49.599Z,94.06
2022-07-29T23:25:23.556Z,90.94
2022-07-29T23:27:51.503Z,91.61
2022-07-29T23:30:19.595Z,92.29
2022-07-29T23:32:51.552Z,90.39
2022-07-29T23:35:19.943Z,92.13
2022-07-29T23:37:49.151Z,95.33
2022-07-29T23:40:19.658Z,100.00
2022-07-29T23:42:48.120Z,100.00
2022-07-29T23:45:16.330Z,100.00
2022-07-29T23:47:48.573Z,100.00
2022-07-29T23:50:17.778Z,100.00
2022-07-29T23:52:46.018Z,100.00
2022-07-29T23:55:37.593Z,100.00
2022-07-29T23:58:09.339Z,100.00
